Terminal Aerodrome Forecast
Issued by NWS

Current Version | Previous Version | Text Only | Print | Product List | Glossary On
Versions: 1 2 3 4 5 6 7 8 9 10 11 12 13 14 15 16 17 18 19 20 21 22 23 24 25 26
000
FTUS41 KRLX 050538
TAFCKB
TAF
KCKB 050538Z 0506/0606 19004KT 3SM SHRA BKN015 BKN035 OVC050
     FM050800 30005KT 5SM SHRA OVC015
     FM051100 32005KT 5SM SHRA BR OVC007
     FM051800 01004KT 3SM SHRA BR OVC015=

USA.gov is the U.S. government's official web portal to all federal, state and local government web resources and services.